sensor_id;sensor_type;location;lat;lon;timestamp;P1;durP1;ratioP1;P2;durP2;ratioP2
8458;SDS011;4266;48.816;9.154;2022-12-07T00:00:30;8.50;;;7.60;;
8458;SDS011;4266;48.816;9.154;2022-12-07T00:02:56;9.57;;;8.77;;
8458;SDS011;4266;48.816;9.154;2022-12-07T00:05:22;8.80;;;8.00;;
8458;SDS011;4266;48.816;9.154;2022-12-07T00:07:47;9.83;;;8.57;;
8458;SDS011;4266;48.816;9.154;2022-12-07T00:10:13;8.83;;;7.93;;
8458;SDS011;4266;48.816;9.154;2022-12-07T00:12:39;9.80;;;8.90;;
8458;SDS011;4266;48.816;9.154;2022-12-07T00:15:05;9.30;;;8.37;;
8458;SDS011;4266;48.816;9.154;2022-12-07T00:17:32;10.63;;;8.60;;
8458;SDS011;4266;48.816;9.154;2022-12-07T00:19:58;9.47;;;8.47;;
8458;SDS011;4266;48.816;9.154;2022-12-07T00:22:24;8.90;;;8.00;;
8458;SDS011;4266;48.816;9.154;2022-12-07T00:24:49;9.27;;;8.37;;
8458;SDS011;4266;48.816;9.154;2022-12-07T00:27:15;9.63;;;8.63;;
8458;SDS011;4266;48.816;9.154;2022-12-07T00:29:41;10.03;;;9.03;;
8458;SDS011;4266;48.816;9.154;2022-12-07T00:32:06;9.27;;;8.17;;
8458;SDS011;4266;48.816;9.154;2022-12-07T00:34:32;10.17;;;9.17;;
8458;SDS011;4266;48.816;9.154;2022-12-07T00:36:58;9.57;;;8.60;;
8458;SDS011;4266;48.816;9.154;2022-12-07T00:39:24;8.93;;;8.13;;
8458;SDS011;4266;48.816;9.154;2022-12-07T00:41:49;10.37;;;9.30;;
8458;SDS011;4266;48.816;9.154;2022-12-07T00:44:15;9.90;;;8.97;;
8458;SDS011;4266;48.816;9.154;2022-12-07T00:46:41;9.77;;;8.87;;
8458;SDS011;4266;48.816;9.154;2022-12-07T00:49:07;10.57;;;9.37;;
8458;SDS011;4266;48.816;9.154;2022-12-07T00:51:32;10.57;;;9.57;;
8458;SDS011;4266;48.816;9.154;2022-12-07T00:53:58;9.80;;;8.87;;
8458;SDS011;4266;48.816;9.154;2022-12-07T00:56:25;10.03;;;9.13;;
8458;SDS011;4266;48.816;9.154;2022-12-07T00:58:51;11.53;;;9.93;;
8458;SDS011;4266;48.816;9.154;2022-12-07T01:01:16;10.13;;;9.03;;
8458;SDS011;4266;48.816;9.154;2022-12-07T01:03:42;10.63;;;9.63;;
8458;SDS011;4266;48.816;9.154;2022-12-07T01:06:07;10.87;;;9.77;;
8458;SDS011;4266;48.816;9.154;2022-12-07T01:08:33;11.17;;;10.00;;
8458;SDS011;4266;48.816;9.154;2022-12-07T01:11:00;10.57;;;9.47;;
8458;SDS011;4266;48.816;9.154;2022-12-07T01:13:25;11.23;;;9.60;;
8458;SDS011;4266;48.816;9.154;2022-12-07T01:15:50;11.87;;;9.90;;
8458;SDS011;4266;48.816;9.154;2022-12-07T01:18:16;10.70;;;9.60;;
8458;SDS011;4266;48.816;9.154;2022-12-07T01:20:42;10.63;;;9.53;;
8458;SDS011;4266;48.816;9.154;2022-12-07T01:23:07;11.33;;;9.50;;
8458;SDS011;4266;48.816;9.154;2022-12-07T01:25:33;10.80;;;9.67;;
8458;SDS011;4266;48.816;9.154;2022-12-07T01:27:59;11.43;;;10.33;;
8458;SDS011;4266;48.816;9.154;2022-12-07T01:30:25;10.90;;;9.80;;
8458;SDS011;4266;48.816;9.154;2022-12-07T01:32:50;10.90;;;9.77;;
8458;SDS011;4266;48.816;9.154;2022-12-07T01:35:16;11.53;;;10.33;;
8458;SDS011;4266;48.816;9.154;2022-12-07T01:37:42;11.23;;;10.03;;
8458;SDS011;4266;48.816;9.154;2022-12-07T01:40:08;12.33;;;10.10;;
8458;SDS011;4266;48.816;9.154;2022-12-07T01:42:34;10.87;;;9.57;;
8458;SDS011;4266;48.816;9.154;2022-12-07T01:47:36;11.00;;;9.90;;
8458;SDS011;4266;48.816;9.154;2022-12-07T01:50:03;10.87;;;9.77;;
8458;SDS011;4266;48.816;9.154;2022-12-07T01:52:30;14.80;;;9.83;;
8458;SDS011;4266;48.816;9.154;2022-12-07T01:54:57;10.50;;;9.43;;
8458;SDS011;4266;48.816;9.154;2022-12-07T01:57:23;11.00;;;10.00;;
8458;SDS011;4266;48.816;9.154;2022-12-07T01:59:49;11.77;;;9.93;;
8458;SDS011;4266;48.816;9.154;2022-12-07T02:02:18;11.67;;;10.47;;
8458;SDS011;4266;48.816;9.154;2022-12-07T02:04:43;13.53;;;10.10;;
8458;SDS011;4266;48.816;9.154;2022-12-07T02:07:08;11.50;;;10.30;;
8458;SDS011;4266;48.816;9.154;2022-12-07T02:09:35;12.43;;;10.50;;
8458;SDS011;4266;48.816;9.154;2022-12-07T02:12:01;11.17;;;9.73;;
8458;SDS011;4266;48.816;9.154;2022-12-07T02:14:26;11.30;;;9.63;;
8458;SDS011;4266;48.816;9.154;2022-12-07T02:20:13;13.03;;;9.77;;
8458;SDS011;4266;48.816;9.154;2022-12-07T02:25:21;11.07;;;9.87;;
8458;SDS011;4266;48.816;9.154;2022-12-07T02:28:03;12.60;;;10.00;;
8458;SDS011;4266;48.816;9.154;2022-12-07T02:30:31;12.23;;;9.93;;
8458;SDS011;4266;48.816;9.154;2022-12-07T02:32:57;10.83;;;9.73;;
8458;SDS011;4266;48.816;9.154;2022-12-07T02:35:34;13.93;;;10.77;;
8458;SDS011;4266;48.816;9.154;2022-12-07T02:38:09;12.87;;;9.33;;
8458;SDS011;4266;48.816;9.154;2022-12-07T02:40:35;10.53;;;9.53;;
8458;SDS011;4266;48.816;9.154;2022-12-07T02:43:02;11.50;;;10.27;;
8458;SDS011;4266;48.816;9.154;2022-12-07T02:45:27;9.87;;;8.90;;
8458;SDS011;4266;48.816;9.154;2022-12-07T02:47:53;12.60;;;10.67;;
8458;SDS011;4266;48.816;9.154;2022-12-07T02:50:20;10.63;;;9.53;;
8458;SDS011;4266;48.816;9.154;2022-12-07T02:52:45;10.70;;;9.60;;
8458;SDS011;4266;48.816;9.154;2022-12-07T02:55:11;10.80;;;9.70;;
8458;SDS011;4266;48.816;9.154;2022-12-07T02:57:42;12.20;;;9.83;;
8458;SDS011;4266;48.816;9.154;2022-12-07T03:00:07;10.67;;;9.00;;
8458;SDS011;4266;48.816;9.154;2022-12-07T03:02:36;10.23;;;9.23;;
8458;SDS011;4266;48.816;9.154;2022-12-07T03:07:51;10.43;;;9.10;;
8458;SDS011;4266;48.816;9.154;2022-12-07T03:10:24;9.63;;;8.63;;
8458;SDS011;4266;48.816;9.154;2022-12-07T03:13:09;10.90;;;9.80;;
8458;SDS011;4266;48.816;9.154;2022-12-07T03:15:34;11.10;;;9.87;;
8458;SDS011;4266;48.816;9.154;2022-12-07T03:18:15;10.53;;;9.47;;
8458;SDS011;4266;48.816;9.154;2022-12-07T03:20:39;11.57;;;10.27;;
8458;SDS011;4266;48.816;9.154;2022-12-07T03:23:05;10.57;;;9.40;;
8458;SDS011;4266;48.816;9.154;2022-12-07T03:25:31;10.97;;;9.87;;
8458;SDS011;4266;48.816;9.154;2022-12-07T03:27:57;10.43;;;9.27;;
8458;SDS011;4266;48.816;9.154;2022-12-07T03:30:24;10.10;;;9.03;;
8458;SDS011;4266;48.816;9.154;2022-12-07T03:32:53;9.87;;;8.90;;
8458;SDS011;4266;48.816;9.154;2022-12-07T03:35:18;11.93;;;9.67;;
8458;SDS011;4266;48.816;9.154;2022-12-07T03:37:46;11.80;;;10.57;;
8458;SDS011;4266;48.816;9.154;2022-12-07T03:40:14;12.40;;;10.13;;
8458;SDS011;4266;48.816;9.154;2022-12-07T03:42:40;10.57;;;9.57;;
8458;SDS011;4266;48.816;9.154;2022-12-07T03:45:06;10.50;;;9.50;;
8458;SDS011;4266;48.816;9.154;2022-12-07T03:47:33;10.10;;;9.20;;
8458;SDS011;4266;48.816;9.154;2022-12-07T03:50:02;10.50;;;9.40;;
8458;SDS011;4266;48.816;9.154;2022-12-07T03:52:39;10.87;;;9.70;;
8458;SDS011;4266;48.816;9.154;2022-12-07T03:55:06;12.00;;;9.70;;
8458;SDS011;4266;48.816;9.154;2022-12-07T03:57:34;12.93;;;10.27;;
8458;SDS011;4266;48.816;9.154;2022-12-07T03:59:59;9.93;;;8.93;;
8458;SDS011;4266;48.816;9.154;2022-12-07T04:02:26;10.20;;;9.07;;
8458;SDS011;4266;48.816;9.154;2022-12-07T04:04:51;11.93;;;9.30;;
8458;SDS011;4266;48.816;9.154;2022-12-07T04:07:17;10.77;;;9.67;;
8458;SDS011;4266;48.816;9.154;2022-12-07T04:09:42;10.40;;;9.33;;
8458;SDS011;4266;48.816;9.154;2022-12-07T04:12:08;11.17;;;9.57;;
8458;SDS011;4266;48.816;9.154;2022-12-07T04:14:34;9.50;;;8.53;;
8458;SDS011;4266;48.816;9.154;2022-12-07T04:17:00;11.13;;;9.30;;
8458;SDS011;4266;48.816;9.154;2022-12-07T04:19:26;9.33;;;8.43;;
8458;SDS011;4266;48.816;9.154;2022-12-07T04:21:51;10.50;;;9.50;;
8458;SDS011;4266;48.816;9.154;2022-12-07T04:24:17;9.27;;;8.40;;
8458;SDS011;4266;48.816;9.154;2022-12-07T04:26:43;9.80;;;8.80;;
8458;SDS011;4266;48.816;9.154;2022-12-07T04:29:09;10.00;;;8.20;;
8458;SDS011;4266;48.816;9.154;2022-12-07T04:31:34;8.57;;;7.77;;
8458;SDS011;4266;48.816;9.154;2022-12-07T04:34:00;8.73;;;7.83;;
8458;SDS011;4266;48.816;9.154;2022-12-07T04:36:26;8.83;;;7.47;;
8458;SDS011;4266;48.816;9.154;2022-12-07T04:38:53;7.20;;;6.60;;
8458;SDS011;4266;48.816;9.154;2022-12-07T04:41:18;6.57;;;5.97;;
8458;SDS011;4266;48.816;9.154;2022-12-07T04:43:44;6.77;;;6.20;;
8458;SDS011;4266;48.816;9.154;2022-12-07T04:46:09;6.27;;;5.67;;
8458;SDS011;4266;48.816;9.154;2022-12-07T04:48:35;6.30;;;5.70;;
8458;SDS011;4266;48.816;9.154;2022-12-07T04:51:02;6.20;;;5.70;;
8458;SDS011;4266;48.816;9.154;2022-12-07T04:53:27;6.33;;;5.83;;
8458;SDS011;4266;48.816;9.154;2022-12-07T04:55:52;6.80;;;6.23;;
8458;SDS011;4266;48.816;9.154;2022-12-07T04:58:18;6.00;;;5.50;;
8458;SDS011;4266;48.816;9.154;2022-12-07T05:00:44;6.47;;;5.97;;
8458;SDS011;4266;48.816;9.154;2022-12-07T05:03:10;6.80;;;6.20;;
8458;SDS011;4266;48.816;9.154;2022-12-07T05:05:36;5.87;;;5.40;;
8458;SDS011;4266;48.816;9.154;2022-12-07T05:08:02;5.67;;;5.17;;
8458;SDS011;4266;48.816;9.154;2022-12-07T05:10:28;6.03;;;5.40;;
8458;SDS011;4266;48.816;9.154;2022-12-07T05:12:54;5.83;;;4.90;;
8458;SDS011;4266;48.816;9.154;2022-12-07T05:15:20;5.07;;;4.67;;
8458;SDS011;4266;48.816;9.154;2022-12-07T05:17:46;5.60;;;5.10;;
8458;SDS011;4266;48.816;9.154;2022-12-07T05:20:12;4.97;;;4.57;;
8458;SDS011;4266;48.816;9.154;2022-12-07T05:22:38;5.60;;;5.10;;
8458;SDS011;4266;48.816;9.154;2022-12-07T05:25:04;6.50;;;5.90;;
8458;SDS011;4266;48.816;9.154;2022-12-07T05:27:30;7.67;;;6.90;;
8458;SDS011;4266;48.816;9.154;2022-12-07T05:29:56;8.53;;;7.70;;
8458;SDS011;4266;48.816;9.154;2022-12-07T05:32:22;8.10;;;7.30;;
8458;SDS011;4266;48.816;9.154;2022-12-07T05:34:47;8.73;;;7.43;;
8458;SDS011;4266;48.816;9.154;2022-12-07T05:37:13;8.80;;;7.40;;
8458;SDS011;4266;48.816;9.154;2022-12-07T05:39:39;9.00;;;7.97;;
8458;SDS011;4266;48.816;9.154;2022-12-07T05:42:04;8.60;;;7.70;;
8458;SDS011;4266;48.816;9.154;2022-12-07T05:44:36;9.30;;;8.07;;
8458;SDS011;4266;48.816;9.154;2022-12-07T05:47:02;8.80;;;7.90;;
8458;SDS011;4266;48.816;9.154;2022-12-07T05:49:28;8.70;;;7.80;;
8458;SDS011;4266;48.816;9.154;2022-12-07T05:51:53;9.13;;;8.23;;
8458;SDS011;4266;48.816;9.154;2022-12-07T05:54:19;9.33;;;8.43;;
8458;SDS011;4266;48.816;9.154;2022-12-07T05:56:45;11.73;;;8.47;;
8458;SDS011;4266;48.816;9.154;2022-12-07T05:59:11;9.60;;;8.27;;
8458;SDS011;4266;48.816;9.154;2022-12-07T06:01:43;9.37;;;8.40;;
8458;SDS011;4266;48.816;9.154;2022-12-07T06:04:08;9.33;;;8.17;;
8458;SDS011;4266;48.816;9.154;2022-12-07T06:06:34;9.93;;;8.93;;
8458;SDS011;4266;48.816;9.154;2022-12-07T06:09:00;9.20;;;8.30;;
8458;SDS011;4266;48.816;9.154;2022-12-07T06:11:26;9.33;;;8.33;;
8458;SDS011;4266;48.816;9.154;2022-12-07T06:13:57;10.27;;;8.97;;
8458;SDS011;4266;48.816;9.154;2022-12-07T06:16:23;9.73;;;8.20;;
8458;SDS011;4266;48.816;9.154;2022-12-07T06:18:49;9.87;;;8.77;;
8458;SDS011;4266;48.816;9.154;2022-12-07T06:21:14;11.80;;;8.67;;
8458;SDS011;4266;48.816;9.154;2022-12-07T06:23:40;10.50;;;8.37;;
8458;SDS011;4266;48.816;9.154;2022-12-07T06:26:06;9.80;;;8.80;;
8458;SDS011;4266;48.816;9.154;2022-12-07T06:28:32;9.47;;;8.57;;
8458;SDS011;4266;48.816;9.154;2022-12-07T06:30:59;10.63;;;8.40;;
8458;SDS011;4266;48.816;9.154;2022-12-07T06:33:24;12.13;;;9.07;;
8458;SDS011;4266;48.816;9.154;2022-12-07T06:35:49;9.60;;;8.63;;
8458;SDS011;4266;48.816;9.154;2022-12-07T06:38:15;9.70;;;8.70;;
8458;SDS011;4266;48.816;9.154;2022-12-07T06:40:41;10.03;;;8.07;;
8458;SDS011;4266;48.816;9.154;2022-12-07T06:43:06;11.40;;;8.00;;
8458;SDS011;4266;48.816;9.154;2022-12-07T06:45:32;9.47;;;8.57;;
8458;SDS011;4266;48.816;9.154;2022-12-07T06:47:58;10.03;;;7.83;;
8458;SDS011;4266;48.816;9.154;2022-12-07T06:50:24;8.20;;;7.40;;
8458;SDS011;4266;48.816;9.154;2022-12-07T06:52:50;9.50;;;8.60;;
8458;SDS011;4266;48.816;9.154;2022-12-07T06:55:15;10.17;;;8.90;;
8458;SDS011;4266;48.816;9.154;2022-12-07T06:57:41;9.80;;;8.80;;
8458;SDS011;4266;48.816;9.154;2022-12-07T07:00:07;10.60;;;8.17;;
8458;SDS011;4266;48.816;9.154;2022-12-07T07:02:33;9.87;;;7.60;;
8458;SDS011;4266;48.816;9.154;2022-12-07T07:04:59;8.73;;;7.67;;
8458;SDS011;4266;48.816;9.154;2022-12-07T07:07:25;8.87;;;7.37;;
8458;SDS011;4266;48.816;9.154;2022-12-07T07:09:50;9.50;;;7.07;;
8458;SDS011;4266;48.816;9.154;2022-12-07T07:12:16;8.53;;;7.63;;
8458;SDS011;4266;48.816;9.154;2022-12-07T07:14:42;7.77;;;6.97;;
8458;SDS011;4266;48.816;9.154;2022-12-07T07:17:07;9.37;;;6.60;;
8458;SDS011;4266;48.816;9.154;2022-12-07T07:19:33;7.43;;;6.73;;
8458;SDS011;4266;48.816;9.154;2022-12-07T07:21:59;8.00;;;7.20;;
8458;SDS011;4266;48.816;9.154;2022-12-07T07:24:24;6.77;;;6.07;;
8458;SDS011;4266;48.816;9.154;2022-12-07T07:26:51;7.07;;;6.37;;
8458;SDS011;4266;48.816;9.154;2022-12-07T07:29:17;7.17;;;6.30;;
8458;SDS011;4266;48.816;9.154;2022-12-07T07:31:44;6.20;;;5.70;;
8458;SDS011;4266;48.816;9.154;2022-12-07T07:34:11;6.57;;;5.90;;
8458;SDS011;4266;48.816;9.154;2022-12-07T07:36:37;6.90;;;6.30;;
8458;SDS011;4266;48.816;9.154;2022-12-07T07:39:02;6.60;;;6.00;;
8458;SDS011;4266;48.816;9.154;2022-12-07T07:41:28;7.30;;;6.60;;
8458;SDS011;4266;48.816;9.154;2022-12-07T07:43:54;8.10;;;6.67;;
8458;SDS011;4266;48.816;9.154;2022-12-07T07:46:20;6.20;;;5.67;;
8458;SDS011;4266;48.816;9.154;2022-12-07T07:48:45;7.33;;;6.60;;
8458;SDS011;4266;48.816;9.154;2022-12-07T07:51:11;8.30;;;6.30;;
8458;SDS011;4266;48.816;9.154;2022-12-07T07:53:37;6.73;;;6.13;;
8458;SDS011;4266;48.816;9.154;2022-12-07T07:56:03;8.60;;;6.87;;
8458;SDS011;4266;48.816;9.154;2022-12-07T07:58:29;6.87;;;6.27;;
8458;SDS011;4266;48.816;9.154;2022-12-07T08:00:54;7.90;;;6.50;;
8458;SDS011;4266;48.816;9.154;2022-12-07T08:03:20;7.10;;;6.40;;
8458;SDS011;4266;48.816;9.154;2022-12-07T08:05:46;7.00;;;6.40;;
8458;SDS011;4266;48.816;9.154;2022-12-07T08:08:11;7.43;;;6.67;;
8458;SDS011;4266;48.816;9.154;2022-12-07T08:10:37;7.57;;;6.87;;
8458;SDS011;4266;48.816;9.154;2022-12-07T08:13:03;6.57;;;5.97;;
8458;SDS011;4266;48.816;9.154;2022-12-07T08:15:36;6.60;;;6.00;;
8458;SDS011;4266;48.816;9.154;2022-12-07T08:18:00;6.40;;;5.90;;
8458;SDS011;4266;48.816;9.154;2022-12-07T08:20:26;7.13;;;5.93;;
8458;SDS011;4266;48.816;9.154;2022-12-07T08:22:52;8.10;;;6.67;;
8458;SDS011;4266;48.816;9.154;2022-12-07T08:25:17;6.97;;;6.33;;
8458;SDS011;4266;48.816;9.154;2022-12-07T08:27:43;6.57;;;6.00;;
8458;SDS011;4266;48.816;9.154;2022-12-07T08:30:10;7.50;;;6.80;;
8458;SDS011;4266;48.816;9.154;2022-12-07T08:32:36;6.90;;;6.30;;
8458;SDS011;4266;48.816;9.154;2022-12-07T08:35:01;7.13;;;6.33;;
8458;SDS011;4266;48.816;9.154;2022-12-07T08:37:27;9.17;;;6.30;;
8458;SDS011;4266;48.816;9.154;2022-12-07T08:39:53;7.23;;;6.50;;
8458;SDS011;4266;48.816;9.154;2022-12-07T08:42:19;6.37;;;5.83;;
8458;SDS011;4266;48.816;9.154;2022-12-07T08:44:45;7.23;;;6.60;;
8458;SDS011;4266;48.816;9.154;2022-12-07T08:47:10;6.53;;;6.00;;
8458;SDS011;4266;48.816;9.154;2022-12-07T08:49:37;7.67;;;6.33;;
8458;SDS011;4266;48.816;9.154;2022-12-07T08:52:02;8.70;;;6.67;;
8458;SDS011;4266;48.816;9.154;2022-12-07T08:54:27;6.97;;;6.37;;
8458;SDS011;4266;48.816;9.154;2022-12-07T08:56:53;8.60;;;6.07;;
8458;SDS011;4266;48.816;9.154;2022-12-07T08:59:19;6.80;;;6.20;;
8458;SDS011;4266;48.816;9.154;2022-12-07T09:01:44;6.80;;;5.63;;
8458;SDS011;4266;48.816;9.154;2022-12-07T09:04:10;6.47;;;5.87;;
8458;SDS011;4266;48.816;9.154;2022-12-07T09:06:36;6.07;;;5.47;;
8458;SDS011;4266;48.816;9.154;2022-12-07T09:09:02;5.40;;;4.90;;
8458;SDS011;4266;48.816;9.154;2022-12-07T09:11:27;6.07;;;5.57;;
8458;SDS011;4266;48.816;9.154;2022-12-07T09:13:54;5.57;;;5.10;;
8458;SDS011;4266;48.816;9.154;2022-12-07T09:16:19;6.47;;;5.07;;
8458;SDS011;4266;48.816;9.154;2022-12-07T09:18:45;6.00;;;5.50;;
8458;SDS011;4266;48.816;9.154;2022-12-07T09:21:11;5.83;;;5.33;;
8458;SDS011;4266;48.816;9.154;2022-12-07T09:23:37;5.50;;;5.00;;
8458;SDS011;4266;48.816;9.154;2022-12-07T09:26:04;5.80;;;5.30;;
8458;SDS011;4266;48.816;9.154;2022-12-07T09:28:30;5.93;;;5.33;;
8458;SDS011;4266;48.816;9.154;2022-12-07T09:30:55;5.40;;;4.30;;
8458;SDS011;4266;48.816;9.154;2022-12-07T09:33:21;5.63;;;5.23;;
8458;SDS011;4266;48.816;9.154;2022-12-07T09:35:47;8.10;;;5.10;;
8458;SDS011;4266;48.816;9.154;2022-12-07T09:38:13;4.83;;;4.43;;
8458;SDS011;4266;48.816;9.154;2022-12-07T09:40:38;5.27;;;4.60;;
8458;SDS011;4266;48.816;9.154;2022-12-07T09:43:04;5.73;;;5.00;;
8458;SDS011;4266;48.816;9.154;2022-12-07T09:45:32;4.83;;;4.43;;
8458;SDS011;4266;48.816;9.154;2022-12-07T09:47:56;5.50;;;4.67;;
8458;SDS011;4266;48.816;9.154;2022-12-07T09:50:24;5.50;;;4.30;;
8458;SDS011;4266;48.816;9.154;2022-12-07T09:52:49;4.67;;;4.30;;
8458;SDS011;4266;48.816;9.154;2022-12-07T09:55:16;3.93;;;3.63;;
8458;SDS011;4266;48.816;9.154;2022-12-07T09:57:40;4.93;;;4.53;;
8458;SDS011;4266;48.816;9.154;2022-12-07T10:00:12;4.83;;;4.43;;
8458;SDS011;4266;48.816;9.154;2022-12-07T10:02:37;5.17;;;4.77;;
8458;SDS011;4266;48.816;9.154;2022-12-07T10:05:03;5.20;;;4.70;;
8458;SDS011;4266;48.816;9.154;2022-12-07T10:07:30;4.93;;;4.43;;
8458;SDS011;4266;48.816;9.154;2022-12-07T10:09:56;5.00;;;4.60;;
8458;SDS011;4266;48.816;9.154;2022-12-07T10:12:22;4.90;;;4.50;;
8458;SDS011;4266;48.816;9.154;2022-12-07T10:14:53;6.07;;;4.70;;
8458;SDS011;4266;48.816;9.154;2022-12-07T10:22:34;4.90;;;4.50;;
8458;SDS011;4266;48.816;9.154;2022-12-07T10:25:07;4.83;;;4.40;;
8458;SDS011;4266;48.816;9.154;2022-12-07T10:27:30;5.03;;;4.63;;
8458;SDS011;4266;48.816;9.154;2022-12-07T10:29:56;5.27;;;4.83;;
8458;SDS011;4266;48.816;9.154;2022-12-07T10:32:37;6.70;;;5.37;;
8458;SDS011;4266;48.816;9.154;2022-12-07T10:37:41;5.77;;;5.27;;
8458;SDS011;4266;48.816;9.154;2022-12-07T10:40:23;5.23;;;4.83;;
8458;SDS011;4266;48.816;9.154;2022-12-07T10:42:33;5.20;;;4.70;;
8458;SDS011;4266;48.816;9.154;2022-12-07T10:45:07;5.17;;;4.77;;
8458;SDS011;4266;48.816;9.154;2022-12-07T10:47:38;5.30;;;4.80;;
8458;SDS011;4266;48.816;9.154;2022-12-07T10:55:48;4.63;;;4.20;;
8458;SDS011;4266;48.816;9.154;2022-12-07T10:58:16;3.97;;;3.67;;
8458;SDS011;4266;48.816;9.154;2022-12-07T11:01:57;3.87;;;3.57;;
8458;SDS011;4266;48.816;9.154;2022-12-07T11:03:46;6.60;;;3.90;;
8458;SDS011;4266;48.816;9.154;2022-12-07T11:06:19;4.00;;;3.70;;
8458;SDS011;4266;48.816;9.154;2022-12-07T11:11:55;3.50;;;3.30;;
8458;SDS011;4266;48.816;9.154;2022-12-07T11:14:10;3.40;;;3.20;;
8458;SDS011;4266;48.816;9.154;2022-12-07T11:16:47;3.80;;;3.57;;
8458;SDS011;4266;48.816;9.154;2022-12-07T11:22:13;3.90;;;3.60;;
8458;SDS011;4266;48.816;9.154;2022-12-07T11:24:49;3.70;;;3.40;;
8458;SDS011;4266;48.816;9.154;2022-12-07T11:27:19;3.60;;;3.40;;
8458;SDS011;4266;48.816;9.154;2022-12-07T11:29:50;3.80;;;3.60;;
8458;SDS011;4266;48.816;9.154;2022-12-07T11:32:22;3.93;;;3.63;;
8458;SDS011;4266;48.816;9.154;2022-12-07T11:34:53;3.17;;;2.97;;
8458;SDS011;4266;48.816;9.154;2022-12-07T11:37:32;4.30;;;3.90;;
8458;SDS011;4266;48.816;9.154;2022-12-07T11:40:02;4.27;;;3.97;;
8458;SDS011;4266;48.816;9.154;2022-12-07T11:42:31;4.50;;;4.10;;
8458;SDS011;4266;48.816;9.154;2022-12-07T11:44:57;4.07;;;3.77;;
8458;SDS011;4266;48.816;9.154;2022-12-07T11:47:26;4.67;;;4.30;;
8458;SDS011;4266;48.816;9.154;2022-12-07T11:50:01;4.50;;;4.20;;
8458;SDS011;4266;48.816;9.154;2022-12-07T11:52:32;5.20;;;4.73;;
8458;SDS011;4266;48.816;9.154;2022-12-07T11:55:39;5.20;;;4.80;;
8458;SDS011;4266;48.816;9.154;2022-12-07T12:03:37;6.43;;;5.50;;
8458;SDS011;4266;48.816;9.154;2022-12-07T12:06:02;6.17;;;5.60;;
8458;SDS011;4266;48.816;9.154;2022-12-07T12:08:30;7.73;;;6.93;;
8458;SDS011;4266;48.816;9.154;2022-12-07T12:11:00;6.03;;;5.53;;
8458;SDS011;4266;48.816;9.154;2022-12-07T12:16:17;8.43;;;5.40;;
8458;SDS011;4266;48.816;9.154;2022-12-07T12:18:46;5.97;;;5.47;;
8458;SDS011;4266;48.816;9.154;2022-12-07T12:21:09;6.17;;;5.63;;
8458;SDS011;4266;48.816;9.154;2022-12-07T12:23:55;6.57;;;6.03;;
8458;SDS011;4266;48.816;9.154;2022-12-07T12:26:35;6.77;;;6.17;;
8458;SDS011;4266;48.816;9.154;2022-12-07T12:29:02;6.10;;;5.57;;
8458;SDS011;4266;48.816;9.154;2022-12-07T12:31:34;6.50;;;5.87;;
8458;SDS011;4266;48.816;9.154;2022-12-07T12:34:02;6.37;;;5.77;;
8458;SDS011;4266;48.816;9.154;2022-12-07T12:39:09;8.37;;;6.10;;
8458;SDS011;4266;48.816;9.154;2022-12-07T12:41:51;6.40;;;5.80;;
8458;SDS011;4266;48.816;9.154;2022-12-07T12:44:38;6.53;;;5.77;;
8458;SDS011;4266;48.816;9.154;2022-12-07T12:47:38;5.80;;;5.20;;
8458;SDS011;4266;48.816;9.154;2022-12-07T12:49:38;6.13;;;5.53;;
8458;SDS011;4266;48.816;9.154;2022-12-07T12:52:46;5.63;;;5.10;;
8458;SDS011;4266;48.816;9.154;2022-12-07T12:57:28;5.70;;;5.27;;
8458;SDS011;4266;48.816;9.154;2022-12-07T12:59:56;5.93;;;5.43;;
8458;SDS011;4266;48.816;9.154;2022-12-07T13:02:26;6.00;;;5.40;;
8458;SDS011;4266;48.816;9.154;2022-12-07T13:04:58;5.77;;;5.27;;
8458;SDS011;4266;48.816;9.154;2022-12-07T13:10:01;5.93;;;4.97;;
8458;SDS011;4266;48.816;9.154;2022-12-07T13:12:28;6.20;;;5.60;;
8458;SDS011;4266;48.816;9.154;2022-12-07T13:14:56;5.97;;;5.47;;
8458;SDS011;4266;48.816;9.154;2022-12-07T13:20:39;5.90;;;5.23;;
8458;SDS011;4266;48.816;9.154;2022-12-07T13:22:39;6.40;;;5.83;;
8458;SDS011;4266;48.816;9.154;2022-12-07T13:25:07;5.37;;;4.87;;
8458;SDS011;4266;48.816;9.154;2022-12-07T13:27:35;6.20;;;5.60;;
8458;SDS011;4266;48.816;9.154;2022-12-07T13:30:01;6.13;;;5.53;;
8458;SDS011;4266;48.816;9.154;2022-12-07T13:32:27;6.07;;;5.57;;
8458;SDS011;4266;48.816;9.154;2022-12-07T13:34:52;6.10;;;5.60;;
8458;SDS011;4266;48.816;9.154;2022-12-07T13:37:23;6.00;;;5.50;;
8458;SDS011;4266;48.816;9.154;2022-12-07T13:39:49;6.10;;;5.60;;
8458;SDS011;4266;48.816;9.154;2022-12-07T13:42:19;6.70;;;6.10;;
8458;SDS011;4266;48.816;9.154;2022-12-07T13:44:50;7.83;;;5.90;;
8458;SDS011;4266;48.816;9.154;2022-12-07T13:47:17;6.43;;;5.90;;
8458;SDS011;4266;48.816;9.154;2022-12-07T13:49:47;6.50;;;6.00;;
8458;SDS011;4266;48.816;9.154;2022-12-07T13:52:14;7.10;;;6.50;;
8458;SDS011;4266;48.816;9.154;2022-12-07T13:54:43;7.23;;;6.60;;
8458;SDS011;4266;48.816;9.154;2022-12-07T13:57:10;8.03;;;6.80;;
8458;SDS011;4266;48.816;9.154;2022-12-07T13:59:36;7.47;;;6.43;;
8458;SDS011;4266;48.816;9.154;2022-12-07T14:02:02;7.80;;;7.10;;
8458;SDS011;4266;48.816;9.154;2022-12-07T14:04:32;11.20;;;6.97;;
8458;SDS011;4266;48.816;9.154;2022-12-07T14:06:58;7.30;;;6.70;;
8458;SDS011;4266;48.816;9.154;2022-12-07T14:09:25;7.27;;;6.67;;
8458;SDS011;4266;48.816;9.154;2022-12-07T14:11:52;8.80;;;7.43;;
8458;SDS011;4266;48.816;9.154;2022-12-07T14:14:19;9.33;;;7.00;;
8458;SDS011;4266;48.816;9.154;2022-12-07T14:17:08;7.90;;;7.10;;
8458;SDS011;4266;48.816;9.154;2022-12-07T14:22:06;7.87;;;6.80;;
8458;SDS011;4266;48.816;9.154;2022-12-07T14:24:40;8.73;;;6.80;;
8458;SDS011;4266;48.816;9.154;2022-12-07T14:26:58;7.87;;;7.07;;
8458;SDS011;4266;48.816;9.154;2022-12-07T14:29:30;8.33;;;7.23;;
8458;SDS011;4266;48.816;9.154;2022-12-07T14:31:53;7.17;;;6.47;;
8458;SDS011;4266;48.816;9.154;2022-12-07T14:34:19;7.90;;;6.60;;
8458;SDS011;4266;48.816;9.154;2022-12-07T14:36:45;7.37;;;6.67;;
8458;SDS011;4266;48.816;9.154;2022-12-07T14:39:10;7.20;;;6.47;;
8458;SDS011;4266;48.816;9.154;2022-12-07T14:41:36;7.63;;;6.93;;
8458;SDS011;4266;48.816;9.154;2022-12-07T14:44:11;6.90;;;6.20;;
8458;SDS011;4266;48.816;9.154;2022-12-07T14:46:37;7.50;;;6.80;;
8458;SDS011;4266;48.816;9.154;2022-12-07T14:49:03;8.10;;;6.90;;
8458;SDS011;4266;48.816;9.154;2022-12-07T14:51:29;7.30;;;6.70;;
8458;SDS011;4266;48.816;9.154;2022-12-07T14:53:55;7.60;;;6.90;;
8458;SDS011;4266;48.816;9.154;2022-12-07T14:56:21;9.03;;;7.83;;
8458;SDS011;4266;48.816;9.154;2022-12-07T14:58:46;7.77;;;7.07;;
8458;SDS011;4266;48.816;9.154;2022-12-07T15:01:12;10.90;;;7.23;;
8458;SDS011;4266;48.816;9.154;2022-12-07T15:03:38;9.30;;;6.97;;
8458;SDS011;4266;48.816;9.154;2022-12-07T15:06:04;7.37;;;6.47;;
8458;SDS011;4266;48.816;9.154;2022-12-07T15:08:30;10.63;;;6.50;;
8458;SDS011;4266;48.816;9.154;2022-12-07T15:10:56;7.23;;;6.40;;
8458;SDS011;4266;48.816;9.154;2022-12-07T15:13:21;6.60;;;6.03;;
8458;SDS011;4266;48.816;9.154;2022-12-07T15:15:54;7.97;;;6.57;;
8458;SDS011;4266;48.816;9.154;2022-12-07T15:18:19;6.73;;;6.13;;
8458;SDS011;4266;48.816;9.154;2022-12-07T15:20:45;6.63;;;6.03;;
8458;SDS011;4266;48.816;9.154;2022-12-07T15:23:11;7.00;;;6.30;;
8458;SDS011;4266;48.816;9.154;2022-12-07T15:25:40;7.87;;;7.03;;
8458;SDS011;4266;48.816;9.154;2022-12-07T15:28:05;11.30;;;7.57;;
8458;SDS011;4266;48.816;9.154;2022-12-07T15:30:31;8.43;;;7.50;;
8458;SDS011;4266;48.816;9.154;2022-12-07T15:32:57;9.87;;;8.87;;
8458;SDS011;4266;48.816;9.154;2022-12-07T15:35:22;10.40;;;8.43;;
8458;SDS011;4266;48.816;9.154;2022-12-07T15:37:48;8.70;;;7.80;;
8458;SDS011;4266;48.816;9.154;2022-12-07T15:40:14;10.80;;;8.73;;
8458;SDS011;4266;48.816;9.154;2022-12-07T15:42:41;10.13;;;9.03;;
8458;SDS011;4266;48.816;9.154;2022-12-07T15:45:07;9.80;;;8.77;;
8458;SDS011;4266;48.816;9.154;2022-12-07T15:47:35;10.87;;;8.23;;
8458;SDS011;4266;48.816;9.154;2022-12-07T15:50:04;10.77;;;8.23;;
8458;SDS011;4266;48.816;9.154;2022-12-07T15:52:30;11.90;;;8.43;;
8458;SDS011;4266;48.816;9.154;2022-12-07T15:54:56;9.47;;;8.50;;
8458;SDS011;4266;48.816;9.154;2022-12-07T15:57:22;13.13;;;9.03;;
8458;SDS011;4266;48.816;9.154;2022-12-07T15:59:48;8.60;;;7.67;;
8458;SDS011;4266;48.816;9.154;2022-12-07T16:02:14;10.23;;;9.07;;